createdAt,value
2022-08-09T00:00:33.586Z,95790.16
2022-08-09T00:04:05.621Z,95788.41
2022-08-09T00:06:19.833Z,95790.16
2022-08-09T00:09:09.608Z,95793.63
2022-08-09T00:12:03.950Z,95785.84
2022-08-09T00:14:58.594Z,95785.03
2022-08-09T00:18:10.262Z,95783.34
2022-08-09T00:21:08.523Z,95780.78
2022-08-09T00:24:02.582Z,95784.19
2022-08-09T00:26:49.590Z,95788.56
2022-08-09T00:30:10.290Z,95793.69
2022-08-09T00:32:29.613Z,95790.22
2022-08-09T00:35:03.329Z,95791.09
2022-08-09T00:37:49.597Z,95787.59
2022-08-09T00:40:30.340Z,95784.16
2022-08-09T00:44:14.428Z,95785.84
2022-08-09T00:46:56.928Z,95784.16
2022-08-09T00:49:55.108Z,95787.59
2022-08-09T00:52:50.611Z,95788.44
2022-08-09T00:56:04.121Z,95791.91
2022-08-09T00:58:35.860Z,95798.78
2022-08-09T01:01:32.215Z,95792.78
2022-08-09T01:04:10.689Z,95790.19
2022-08-09T01:07:12.253Z,95785.84
2022-08-09T01:10:04.633Z,95785.84
2022-08-09T01:12:58.661Z,95782.44
2022-08-09T01:15:51.711Z,95790.19
2022-08-09T01:19:01.858Z,95789.34
2022-08-09T01:22:19.658Z,95791.97
2022-08-09T01:25:37.392Z,95785.06
2022-08-09T01:28:37.632Z,95794.63
2022-08-09T01:32:29.810Z,95784.34
2022-08-09T01:34:33.635Z,95777.53
2022-08-09T01:38:05.807Z,95783.56
2022-08-09T01:40:34.640Z,95790.47
2022-08-09T01:43:17.633Z,95786.22
2022-08-09T01:45:53.920Z,95788.81
2022-08-09T01:48:53.652Z,95781.09
2022-08-09T01:51:44.480Z,95784.59
2022-08-09T01:54:35.741Z,95785.50
2022-08-09T01:57:27.639Z,95786.41
2022-08-09T02:00:34.798Z,95785.56
2022-08-09T02:03:22.653Z,95787.28
2022-08-09T02:06:03.721Z,95783.81
2022-08-09T02:08:58.807Z,95790.75
2022-08-09T02:11:40.345Z,95785.59
2022-08-09T02:14:32.667Z,95789.88
2022-08-09T02:17:15.330Z,95784.69
2022-08-09T02:20:15.895Z,95783.03
2022-08-09T02:23:31.996Z,95784.75
2022-08-09T02:26:28.665Z,95792.53
2022-08-09T02:29:13.657Z,95781.34
2022-08-09T02:32:14.678Z,95785.72
2022-08-09T02:35:17.644Z,95779.78
2022-08-09T02:38:00.681Z,95791.03
2022-08-09T02:40:50.734Z,95789.41
2022-08-09T02:43:25.733Z,95791.19
2022-08-09T02:46:17.677Z,95789.59
2022-08-09T02:48:58.679Z,95789.69
2022-08-09T02:51:49.700Z,95789.03
2022-08-09T02:54:35.659Z,95794.34
2022-08-09T02:57:59.666Z,95798.81
2022-08-09T03:00:47.674Z,95792.88
2022-08-09T03:03:37.255Z,95795.56
2022-08-09T03:06:30.683Z,95798.19
2022-08-09T03:09:12.682Z,95799.00
2022-08-09T03:12:05.398Z,95794.78
2022-08-09T03:14:46.759Z,95795.69
2022-08-09T03:17:35.702Z,95794.88
2022-08-09T03:20:11.834Z,95796.66
2022-08-09T03:23:00.321Z,95788.91
2022-08-09T03:25:59.167Z,95788.91
2022-08-09T03:28:44.694Z,95795.75
2022-08-09T03:31:42.433Z,95784.56
2022-08-09T03:34:17.770Z,95786.25
2022-08-09T03:37:54.647Z,95790.59
2022-08-09T03:39:58.848Z,95794.91
2022-08-09T03:42:47.713Z,95789.72
2022-08-09T03:46:03.148Z,95788.00
2022-08-09T03:48:51.416Z,95788.00
2022-08-09T03:51:56.727Z,95781.09
2022-08-09T03:54:44.690Z,95790.66
2022-08-09T03:57:20.936Z,95790.59
2022-08-09T04:00:07.704Z,95794.09
2022-08-09T04:02:52.623Z,95794.13
2022-08-09T04:05:47.702Z,95785.53
2022-08-09T04:08:34.700Z,95786.34
2022-08-09T04:11:11.160Z,95791.53
2022-08-09T04:14:52.914Z,95798.44
2022-08-09T04:16:50.838Z,95801.91
2022-08-09T04:19:42.894Z,95802.78
2022-08-09T04:22:32.090Z,95809.66
2022-08-09T04:25:26.719Z,95807.94
2022-08-09T04:28:30.827Z,95810.50
2022-08-09T04:31:22.733Z,95812.22
2022-08-09T04:34:06.892Z,95811.38
2022-08-09T04:37:00.746Z,95817.41
2022-08-09T04:39:49.240Z,95813.09
2022-08-09T04:42:23.622Z,95811.34
2022-08-09T04:45:11.723Z,95817.31
2022-08-09T04:47:58.787Z,95819.84
2022-08-09T04:50:50.086Z,95816.34
2022-08-09T04:53:23.817Z,95830.13
2022-08-09T04:56:12.740Z,95817.16
2022-08-09T04:58:52.821Z,95815.31
2022-08-09T05:01:41.736Z,95816.09
2022-08-09T05:04:14.890Z,95813.31
2022-08-09T05:07:01.727Z,95819.91
2022-08-09T05:09:49.370Z,95824.75
2022-08-09T05:12:37.731Z,95824.34
2022-08-09T05:15:38.579Z,95826.41
2022-08-09T05:18:57.553Z,95831.88
2022-08-09T05:21:47.253Z,95829.50
2022-08-09T05:24:32.743Z,95828.09
2022-08-09T05:27:19.778Z,95832.69
2022-08-09T05:29:52.825Z,95836.38
2022-08-09T05:32:39.764Z,95830.88
2022-08-09T05:35:23.753Z,95828.97
2022-08-09T05:38:21.784Z,95832.44
2022-08-09T05:41:15.765Z,95832.44
2022-08-09T05:44:09.760Z,95829.94
2022-08-09T05:47:04.900Z,95837.84
2022-08-09T05:50:34.979Z,95836.28
2022-08-09T05:53:11.764Z,95833.00
2022-08-09T05:55:59.908Z,95834.88
2022-08-09T05:58:48.778Z,95832.38
2022-08-09T06:01:21.860Z,95826.38
2022-08-09T06:04:09.829Z,95827.31
2022-08-09T06:06:49.822Z,95829.06
2022-08-09T06:09:54.823Z,95837.78
2022-08-09T06:12:29.867Z,95830.94
2022-08-09T06:15:16.785Z,95841.34
2022-08-09T06:17:51.671Z,95837.94
2022-08-09T06:20:38.803Z,95831.03
2022-08-09T06:23:15.644Z,95842.19
2022-08-09T06:26:02.813Z,95836.06
2022-08-09T06:28:35.879Z,95839.44
2022-08-09T06:31:31.041Z,95842.84
2022-08-09T06:34:11.803Z,95836.59
2022-08-09T06:37:10.173Z,95833.91
2022-08-09T06:39:59.783Z,95844.94
2022-08-09T06:42:33.911Z,95840.53
2022-08-09T06:46:07.285Z,95836.97
2022-08-09T06:48:30.528Z,95842.84
2022-08-09T06:51:18.789Z,95834.09
2022-08-09T06:54:00.913Z,95846.03
2022-08-09T06:56:47.797Z,95851.94
2022-08-09T07:00:54.583Z,95856.06
2022-08-09T07:02:29.533Z,95854.28
2022-08-09T07:05:11.817Z,95854.19
2022-08-09T07:08:01.892Z,95863.69
2022-08-09T07:10:44.844Z,95867.94
2022-08-09T07:13:45.106Z,95868.75
2022-08-09T07:16:57.956Z,95872.97
2022-08-09T07:19:44.825Z,95874.56
2022-08-09T07:22:34.255Z,95871.06
2022-08-09T07:25:21.828Z,95878.78
2022-08-09T07:27:55.449Z,95883.84
2022-08-09T07:30:42.844Z,95883.84
2022-08-09T07:33:16.709Z,95888.81
2022-08-09T07:36:03.840Z,95887.81
2022-08-09T07:38:37.937Z,95885.16
2022-08-09T07:41:25.840Z,95886.84
2022-08-09T07:44:00.012Z,95897.06
2022-08-09T07:46:46.849Z,95901.28
2022-08-09T07:49:20.920Z,95903.81
2022-08-09T07:52:16.809Z,95903.81
2022-08-09T07:54:57.838Z,95908.16
2022-08-09T07:57:54.855Z,95916.00
2022-08-09T08:00:49.299Z,95911.72
2022-08-09T08:03:36.973Z,95915.06
2022-08-09T08:06:31.952Z,95917.75
2022-08-09T08:09:35.578Z,95921.19
2022-08-09T08:12:28.047Z,95919.41
2022-08-09T08:15:17.315Z,95909.00
2022-08-09T08:17:57.948Z,95916.78
2022-08-09T08:20:45.832Z,95918.47
2022-08-09T08:23:27.242Z,95916.56
2022-08-09T08:26:13.861Z,95914.69
2022-08-09T08:28:50.865Z,95916.28
2022-08-09T08:32:01.038Z,95918.53
2022-08-09T08:34:37.858Z,95926.75
2022-08-09T08:37:41.305Z,95923.97
2022-08-09T08:40:41.870Z,95916.84
2022-08-09T08:43:14.954Z,95918.31
2022-08-09T08:46:32.458Z,95916.53
2022-08-09T08:49:01.977Z,95913.84
2022-08-09T08:52:00.267Z,95925.81
2022-08-09T08:54:41.869Z,95921.16
2022-08-09T08:57:37.284Z,95916.75
2022-08-09T09:00:27.827Z,95928.81
2022-08-09T09:03:22.714Z,95919.91
2022-08-09T09:06:18.871Z,95920.59
2022-08-09T09:09:40.984Z,95923.16
2022-08-09T09:12:00.945Z,95917.72
2022-08-09T09:14:48.880Z,95922.59
2022-08-09T09:17:30.862Z,95922.22
2022-08-09T09:20:41.920Z,95921.59
2022-08-09T09:23:15.020Z,95929.88
2022-08-09T09:26:12.352Z,95928.03
2022-08-09T09:29:03.604Z,95916.72
2022-08-09T09:32:03.861Z,95924.19
2022-08-09T09:34:48.022Z,95921.97
2022-08-09T09:37:36.902Z,95924.25
2022-08-09T09:40:15.064Z,95925.69
2022-08-09T09:43:04.898Z,95933.53
2022-08-09T09:49:16.902Z,95931.69
2022-08-09T09:52:35.783Z,95926.97
2022-08-09T09:55:32.657Z,95934.56
2022-08-09T09:58:20.214Z,95918.38
2022-08-09T10:01:01.009Z,95940.22
2022-08-09T10:03:58.220Z,95936.25
2022-08-09T10:06:46.975Z,95934.84
2022-08-09T10:10:03.912Z,95937.63
2022-08-09T10:12:53.361Z,95937.69
2022-08-09T10:16:54.623Z,95935.25
2022-08-09T10:19:10.111Z,95940.69
2022-08-09T10:22:00.338Z,95941.72
2022-08-09T10:24:49.872Z,95946.22
2022-08-09T10:27:38.477Z,95947.19
2022-08-09T10:34:11.216Z,95937.31
2022-08-09T10:37:03.062Z,95940.75
2022-08-09T10:39:50.028Z,95939.06
2022-08-09T10:42:26.981Z,95944.19
2022-08-09T10:45:17.105Z,95942.38
2022-08-09T10:48:30.660Z,95943.22
2022-08-09T10:51:44.934Z,95941.53
2022-08-09T10:54:31.961Z,95949.47
2022-08-09T10:57:26.935Z,95947.84
2022-08-09T11:00:35.294Z,95944.50
2022-08-09T11:03:50.079Z,95939.31
2022-08-09T11:06:23.190Z,95944.44
2022-08-09T11:08:59.736Z,95944.31
2022-08-09T11:12:05.079Z,95946.84
2022-08-09T11:14:48.550Z,95948.44
2022-08-09T11:17:27.963Z,95943.03
2022-08-09T11:20:22.061Z,95946.47
2022-08-09T11:23:07.093Z,95949.03
2022-08-09T11:25:54.655Z,95942.94
2022-08-09T11:28:55.701Z,95949.81
2022-08-09T11:31:53.023Z,95950.50
2022-08-09T11:34:56.750Z,95949.47
2022-08-09T11:37:49.837Z,95939.00
2022-08-09T11:40:44.064Z,95944.03
2022-08-09T11:43:37.386Z,95942.19
2022-08-09T11:46:33.349Z,95946.34
2022-08-09T11:49:28.958Z,95936.72
2022-08-09T11:53:03.757Z,95934.91
2022-08-09T11:55:53.216Z,95928.91
2022-08-09T11:58:50.226Z,95931.50
2022-08-09T12:02:16.263Z,95936.84
2022-08-09T12:04:47.053Z,95927.50
2022-08-09T12:07:42.142Z,95931.03
2022-08-09T12:10:38.258Z,95928.28
2022-08-09T12:14:10.160Z,95923.81
2022-08-09T12:16:37.603Z,95925.34
2022-08-09T12:19:35.023Z,95912.28
2022-08-09T12:22:13.097Z,95918.19
2022-08-09T12:25:18.000Z,95906.94
2022-08-09T12:29:11.662Z,95918.19
2022-08-09T12:32:02.654Z,95913.84
2022-08-09T12:34:49.006Z,95908.59
2022-08-09T12:37:51.734Z,95903.38
2022-08-09T12:40:37.020Z,95892.97
2022-08-09T12:44:06.115Z,95899.06
2022-08-09T12:46:42.006Z,95901.63
2022-08-09T12:49:23.993Z,95892.91
2022-08-09T12:52:19.019Z,95892.84
2022-08-09T12:56:13.056Z,95896.34
2022-08-09T12:58:24.210Z,95891.13
2022-08-09T13:01:08.052Z,95899.06
2022-08-09T13:03:57.408Z,95897.41
2022-08-09T13:06:49.021Z,95887.97
2022-08-09T13:09:38.328Z,95889.88
2022-08-09T13:12:28.153Z,95890.84
2022-08-09T13:15:14.076Z,95891.88
2022-08-09T13:18:17.252Z,95886.81
2022-08-09T13:21:04.073Z,95890.25
2022-08-09T13:24:42.278Z,95889.44
2022-08-09T13:26:59.923Z,95883.31
2022-08-09T13:30:04.370Z,95875.44
2022-08-09T13:33:11.998Z,95874.63
2022-08-09T13:36:41.538Z,95877.06
2022-08-09T13:41:46.297Z,95890.00
2022-08-09T13:42:18.193Z,95879.53
2022-08-09T13:45:08.458Z,95889.88
2022-08-09T13:47:51.219Z,95890.78
2022-08-09T13:50:41.055Z,95892.47
2022-08-09T13:53:16.748Z,95888.09
2022-08-09T13:56:03.073Z,95890.78
2022-08-09T13:58:36.144Z,95889.91
2022-08-09T14:01:56.221Z,95889.03
2022-08-09T14:04:23.656Z,95893.38
2022-08-09T14:07:11.041Z,95894.22
2022-08-09T14:09:44.176Z,95889.91
2022-08-09T14:12:31.261Z,95887.41
2022-08-09T14:15:06.862Z,95890.84
2022-08-09T14:18:19.700Z,95884.03
2022-08-09T14:21:08.064Z,95888.31
2022-08-09T14:24:18.337Z,95879.66
2022-08-09T14:27:02.301Z,95883.09
2022-08-09T14:30:34.905Z,95890.91
2022-08-09T14:32:42.330Z,95879.59
2022-08-09T14:35:52.231Z,95883.03
2022-08-09T14:38:40.064Z,95891.69
2022-08-09T14:41:34.409Z,95892.53
2022-08-09T14:44:32.622Z,95889.09
2022-08-09T14:47:46.615Z,95885.66
2022-08-09T14:50:43.077Z,95883.09
2022-08-09T14:53:32.084Z,95877.84
2022-08-09T14:56:21.705Z,95882.22
2022-08-09T14:59:20.080Z,95892.59
2022-08-09T15:02:08.120Z,95895.25
2022-08-09T15:04:42.179Z,95886.63
2022-08-09T15:07:30.773Z,95884.03
2022-08-09T15:10:16.100Z,95880.66
2022-08-09T15:13:04.110Z,95891.09
2022-08-09T15:15:38.984Z,95889.34
2022-08-09T15:18:26.077Z,95886.81
2022-08-09T15:21:55.796Z,95889.47
2022-08-09T15:24:19.137Z,95880.75
2022-08-09T15:26:57.777Z,95886.88
2022-08-09T15:30:55.711Z,95877.41
2022-08-09T15:32:46.413Z,95876.53
2022-08-09T15:35:45.113Z,95872.31
2022-08-09T15:38:56.492Z,95875.00
2022-08-09T15:41:50.749Z,95869.72
2022-08-09T15:44:38.139Z,95869.72
2022-08-09T15:47:14.548Z,95866.22
2022-08-09T15:50:19.114Z,95867.97
2022-08-09T15:54:02.322Z,95865.16
2022-08-09T15:56:29.005Z,95870.38
2022-08-09T15:59:25.140Z,95868.75
2022-08-09T16:02:27.319Z,95876.75
2022-08-09T16:05:08.135Z,95872.53
2022-08-09T16:08:02.137Z,95870.91
2022-08-09T16:10:55.585Z,95870.97
2022-08-09T16:14:04.238Z,95859.03
2022-08-09T16:16:38.965Z,95868.66
2022-08-09T16:19:17.203Z,95873.06
2022-08-09T16:22:05.142Z,95868.84
2022-08-09T16:24:45.140Z,95870.66
2022-08-09T16:27:52.933Z,95866.44
2022-08-09T16:30:59.287Z,95865.66
2022-08-09T16:33:53.138Z,95868.31
2022-08-09T16:36:49.134Z,95867.53
2022-08-09T16:39:29.225Z,95867.59
2022-08-09T16:42:27.124Z,95869.47
2022-08-09T16:45:00.217Z,95872.94
2022-08-09T16:48:40.922Z,95872.25
2022-08-09T16:50:59.445Z,95871.53
2022-08-09T16:54:34.578Z,95875.09
2022-08-09T16:57:08.247Z,95862.25
2022-08-09T16:59:50.268Z,95870.94
2022-08-09T17:02:46.386Z,95870.28
2022-08-09T17:05:20.250Z,95869.50
2022-08-09T17:08:46.753Z,95870.53
2022-08-09T17:11:08.174Z,95874.09
2022-08-09T17:14:05.161Z,95875.06
2022-08-09T17:16:52.187Z,95873.44
2022-08-09T17:20:11.124Z,95873.59
2022-08-09T17:22:50.219Z,95878.84
2022-08-09T17:25:39.170Z,95872.91
2022-08-09T17:28:13.243Z,95870.44
2022-08-09T17:31:00.182Z,95876.56
2022-08-09T17:33:36.011Z,95881.00
2022-08-09T17:36:25.186Z,95881.97
2022-08-09T17:39:00.269Z,95884.69
2022-08-09T17:41:49.979Z,95887.41
2022-08-09T17:44:42.026Z,95884.09
2022-08-09T17:47:49.464Z,95892.06
2022-08-09T17:50:37.316Z,95893.09
2022-08-09T17:53:24.174Z,95897.69
2022-08-09T17:56:02.042Z,95894.34
2022-08-09T17:58:53.185Z,95900.53
2022-08-09T18:02:03.814Z,95903.34
2022-08-09T18:04:34.211Z,95910.44
2022-08-09T18:07:09.292Z,95913.28
2022-08-09T18:10:10.197Z,95922.13
2022-08-09T18:13:39.876Z,95918.91
2022-08-09T18:16:08.053Z,95924.34
2022-08-09T18:18:49.045Z,95923.72
2022-08-09T18:21:40.965Z,95940.31
2022-08-09T18:24:16.326Z,95940.59
2022-08-09T18:27:03.180Z,95941.66
2022-08-09T18:30:38.342Z,95947.06
2022-08-09T18:32:53.988Z,95943.09
2022-08-09T18:35:58.023Z,95947.63
2022-08-09T18:38:28.226Z,95942.78
2022-08-09T18:41:08.239Z,95947.28
2022-08-09T18:43:53.130Z,95955.16
2022-08-09T18:46:48.546Z,95957.09
2022-08-09T18:49:41.530Z,95964.22
2022-08-09T18:52:37.630Z,95958.34
2022-08-09T18:55:56.296Z,95959.47
2022-08-09T18:58:47.235Z,95958.84
2022-08-09T19:01:43.518Z,95958.19
2022-08-09T19:04:35.129Z,95952.34
2022-08-09T19:07:22.262Z,95951.66
2022-08-09T19:10:15.293Z,95948.41
2022-08-09T19:13:15.474Z,95944.38
2022-08-09T19:15:55.685Z,95948.00
2022-08-09T19:18:45.462Z,95954.22
2022-08-09T19:21:51.774Z,95956.13
2022-08-09T19:24:33.505Z,95963.13
2022-08-09T19:27:14.330Z,95959.78
2022-08-09T19:30:22.689Z,95960.75
2022-08-09T19:32:55.410Z,95965.19
2022-08-09T19:35:56.497Z,95962.75
2022-08-09T19:38:39.818Z,95968.91
2022-08-09T19:41:35.390Z,95966.47
2022-08-09T19:44:29.405Z,95965.72
2022-08-09T19:47:09.276Z,95970.09
2022-08-09T19:50:07.978Z,95965.84
2022-08-09T19:52:52.462Z,95971.09
2022-08-09T19:56:02.954Z,95961.66
2022-08-09T19:58:34.241Z,95961.78
2022-08-09T20:01:14.378Z,95962.75
2022-08-09T20:04:25.267Z,95968.81
2022-08-09T20:06:54.352Z,95960.25
2022-08-09T20:09:44.494Z,95964.66
2022-08-09T20:12:30.202Z,95970.00
2022-08-09T20:16:37.680Z,95968.38
2022-08-09T20:18:28.012Z,95966.00
2022-08-09T20:21:09.301Z,95972.06
2022-08-09T20:23:57.246Z,95973.03
2022-08-09T20:26:37.321Z,95979.97
2022-08-09T20:29:37.323Z,95976.63
2022-08-09T20:32:30.808Z,95984.50
2022-08-09T20:35:14.265Z,95981.22
2022-08-09T20:38:20.416Z,95981.28
2022-08-09T20:41:35.157Z,95989.13
2022-08-09T20:44:26.978Z,95986.69
2022-08-09T20:47:03.398Z,95985.94
2022-08-09T20:49:57.310Z,95986.03
2022-08-09T20:52:52.293Z,95985.22
2022-08-09T20:55:47.153Z,95986.22
2022-08-09T20:58:39.298Z,95988.84
2022-08-09T21:01:34.012Z,95985.34
2022-08-09T21:05:51.262Z,95984.59
2022-08-09T21:07:40.411Z,95982.88
2022-08-09T21:10:15.546Z,95979.50
2022-08-09T21:13:02.307Z,95979.59
2022-08-09T21:15:35.431Z,95982.28
2022-08-09T21:18:27.400Z,95980.72
2022-08-09T21:21:01.425Z,95985.94
2022-08-09T21:24:04.329Z,95986.84
2022-08-09T21:26:37.457Z,95988.59
2022-08-09T21:29:26.309Z,95986.09
2022-08-09T21:32:00.738Z,95980.13
2022-08-09T21:34:51.293Z,95986.16
2022-08-09T21:37:25.419Z,95996.53
2022-08-09T21:40:21.976Z,95990.66
2022-08-09T21:43:11.283Z,95989.84
2022-08-09T21:45:54.395Z,95983.06
2022-08-09T21:48:42.826Z,95984.88
2022-08-09T21:51:24.577Z,95989.22
2022-08-09T21:54:23.310Z,95992.72
2022-08-09T21:56:58.406Z,95985.94
2022-08-09T21:59:45.323Z,95982.59
2022-08-09T22:02:19.498Z,95983.47
2022-08-09T22:05:23.843Z,95981.81
2022-08-09T22:08:12.952Z,95977.56
2022-08-09T22:11:49.352Z,95977.66
2022-08-09T22:14:02.317Z,95970.84
2022-08-09T22:16:56.330Z,95972.53
2022-08-09T22:19:59.683Z,95981.16
2022-08-09T22:22:35.656Z,95979.47
2022-08-09T22:26:06.653Z,95978.63
2022-08-09T22:28:29.657Z,95977.84
2022-08-09T22:31:19.338Z,95973.59
2022-08-09T22:34:00.311Z,95969.34
2022-08-09T22:36:47.352Z,95976.25
2022-08-09T22:39:56.045Z,95976.31
2022-08-09T22:42:29.338Z,95976.31
2022-08-09T22:48:14.265Z,95972.91
2022-08-09T22:48:34.954Z,95976.34
2022-08-09T22:51:23.900Z,95974.69
2022-08-09T22:54:11.327Z,95967.84
2022-08-09T22:56:45.417Z,95970.50
2022-08-09T22:59:55.518Z,95960.22
2022-08-09T23:02:30.475Z,95966.28
2022-08-09T23:05:17.355Z,95959.47
2022-08-09T23:08:27.759Z,95965.47
2022-08-09T23:11:22.367Z,95958.72
2022-08-09T23:13:58.732Z,95967.38
2022-08-09T23:16:45.365Z,95957.25
2022-08-09T23:19:18.476Z,95964.13
2022-08-09T23:22:05.361Z,95965.00
2022-08-09T23:24:38.615Z,95971.06
2022-08-09T23:27:25.369Z,95961.75
2022-08-09T23:29:58.449Z,95961.78
2022-08-09T23:32:45.349Z,95962.75
2022-08-09T23:35:25.368Z,95965.44
2022-08-09T23:38:19.385Z,95957.88
2022-08-09T23:41:06.388Z,95954.63
2022-08-09T23:43:39.446Z,95960.72
2022-08-09T23:46:26.357Z,95953.91
2022-08-09T23:48:59.512Z,95952.25
2022-08-09T23:51:53.385Z,95959.16
2022-08-09T23:54:47.400Z,95955.81
2022-08-09T23:57:34.368Z,95953.34
